createdAt,value
2023-03-20T00:01:26.491Z,3.03
2023-03-20T00:08:29.734Z,3.15
2023-03-20T00:15:34.294Z,3.35
2023-03-20T00:22:36.053Z,3.60
2023-03-20T00:29:37.614Z,3.78
2023-03-20T00:36:39.279Z,3.47
2023-03-20T00:43:40.841Z,3.50
2023-03-20T00:50:42.536Z,4.10
2023-03-20T00:57:55.786Z,3.75
2023-03-20T01:04:58.435Z,3.75
2023-03-20T01:12:00.582Z,3.97
2023-03-20T01:19:02.153Z,4.22
2023-03-20T01:26:04.123Z,4.05
2023-03-20T01:33:26.489Z,4.43
2023-03-20T01:40:55.822Z,4.45
2023-03-20T01:47:58.929Z,4.25
2023-03-20T01:55:00.883Z,4.20
2023-03-20T02:02:02.625Z,4.15
2023-03-20T02:09:04.432Z,4.70
2023-03-20T02:16:14.028Z,4.78
2023-03-20T02:24:16.439Z,4.53
2023-03-20T02:31:48.346Z,4.55
2023-03-20T02:39:02.611Z,4.37
2023-03-20T02:46:20.541Z,4.45
2023-03-20T02:53:34.763Z,4.82
2023-03-20T03:00:39.309Z,4.65
2023-03-20T03:07:44.148Z,4.75
2023-03-20T03:14:49.146Z,4.40
2023-03-20T03:21:52.384Z,4.50
2023-03-20T03:28:58.263Z,4.97
2023-03-20T03:36:26.154Z,4.97
2023-03-20T03:43:35.617Z,4.32
2023-03-20T03:50:47.758Z,5.00
2023-03-20T03:57:52.638Z,5.80
2023-03-20T04:04:55.148Z,6.35
2023-03-20T04:11:56.734Z,6.75
2023-03-20T04:18:58.426Z,6.43
2023-03-20T04:26:00.165Z,6.68
2023-03-20T04:33:03.358Z,7.00
2023-03-20T04:40:19.854Z,7.38
2023-03-20T04:47:22.822Z,6.95
2023-03-20T04:54:26.616Z,7.35
2023-03-20T05:01:28.518Z,8.15
2023-03-20T05:08:30.254Z,8.88
2023-03-20T05:15:35.470Z,8.55
2023-03-20T05:22:55.881Z,7.57
2023-03-20T05:30:16.533Z,7.28
2023-03-20T05:37:30.210Z,7.22
2023-03-20T05:44:41.697Z,7.32
2023-03-20T05:52:06.531Z,7.72
2023-03-20T05:59:20.301Z,7.65
2023-03-20T06:06:42.254Z,7.95
2023-03-20T06:13:44.360Z,8.60
2023-03-20T06:20:47.016Z,8.85
2023-03-20T06:27:49.164Z,8.68
2023-03-20T06:34:51.012Z,8.50
2023-03-20T06:41:52.777Z,8.75
2023-03-20T06:48:58.114Z,7.47
2023-03-20T06:55:59.780Z,10.18
2023-03-20T07:03:02.445Z,11.02
2023-03-20T07:10:04.579Z,10.65
2023-03-20T07:17:06.285Z,11.10
2023-03-20T07:24:08.932Z,12.65
2023-03-20T07:31:18.810Z,13.35
2023-03-20T07:38:21.628Z,11.60
2023-03-20T07:45:36.391Z,12.10
2023-03-20T07:52:38.192Z,11.68
2023-03-20T07:59:39.902Z,10.95
2023-03-20T08:06:41.518Z,10.68
2023-03-20T08:13:43.217Z,10.68
2023-03-20T08:20:44.764Z,11.70
2023-03-20T08:27:46.618Z,11.25
2023-03-20T08:34:48.210Z,10.48
2023-03-20T08:41:49.726Z,10.20
2023-03-20T08:48:51.549Z,9.23
2023-03-20T08:55:53.314Z,11.02
2023-03-20T09:02:54.885Z,7.72
2023-03-20T09:09:56.553Z,9.40
2023-03-20T09:16:58.124Z,10.57
2023-03-20T09:23:59.672Z,9.32
2023-03-20T09:31:01.359Z,8.93
2023-03-20T09:38:03.077Z,9.13
2023-03-20T09:45:22.140Z,8.38
2023-03-20T09:52:51.866Z,7.93
2023-03-20T09:59:57.565Z,7.97
2023-03-20T10:06:59.063Z,7.45
2023-03-20T10:14:18.516Z,6.13
2023-03-20T10:21:24.841Z,6.67
2023-03-20T10:28:36.643Z,5.47
2023-03-20T10:35:57.441Z,6.57
2023-03-20T10:43:09.510Z,6.10
2023-03-20T10:50:15.418Z,5.82
2023-03-20T10:57:24.546Z,5.18
2023-03-20T11:04:26.203Z,5.15
2023-03-20T11:11:28.777Z,4.45
2023-03-20T11:18:30.412Z,6.15
2023-03-20T11:25:37.476Z,5.55
2023-03-20T11:32:46.466Z,5.15
2023-03-20T11:40:01.434Z,5.07
2023-03-20T11:47:14.201Z,5.13
2023-03-20T11:54:20.136Z,4.15
2023-03-20T12:01:22.144Z,4.60
2023-03-20T12:08:25.074Z,4.35
2023-03-20T12:15:37.003Z,5.00
2023-03-20T12:22:43.272Z,4.85
2023-03-20T12:29:48.836Z,5.07
2023-03-20T12:36:52.907Z,5.38
2023-03-20T12:43:54.519Z,5.97
2023-03-20T12:51:07.875Z,6.10
2023-03-20T12:58:32.581Z,6.18
2023-03-20T13:05:51.054Z,6.15
2023-03-20T13:13:04.214Z,6.37
2023-03-20T13:20:24.013Z,6.45
2023-03-20T13:27:45.758Z,7.15
2023-03-20T13:34:47.323Z,6.78
2023-03-20T13:41:48.879Z,6.82
2023-03-20T13:48:50.706Z,6.60
2023-03-20T13:56:11.562Z,6.32
2023-03-20T14:03:22.260Z,7.05
2023-03-20T14:10:24.060Z,7.43
2023-03-20T14:17:27.260Z,7.85
2023-03-20T14:24:28.796Z,7.43
2023-03-20T14:31:31.533Z,8.20
2023-03-20T14:38:44.564Z,6.70
2023-03-20T14:45:51.561Z,8.55
2023-03-20T14:52:54.540Z,7.25
2023-03-20T14:59:56.239Z,8.10
2023-03-20T15:07:19.208Z,7.82
2023-03-20T15:14:22.970Z,7.90
2023-03-20T15:21:36.548Z,7.43
2023-03-20T15:28:38.200Z,8.65
2023-03-20T15:35:39.837Z,7.45
2023-03-20T15:42:41.370Z,7.88
2023-03-20T15:49:43.037Z,7.72
2023-03-20T15:56:45.727Z,7.72
2023-03-20T16:03:47.476Z,9.02
2023-03-20T16:10:49.019Z,7.57
2023-03-20T16:17:50.553Z,8.20
2023-03-20T16:24:55.532Z,7.20
2023-03-20T16:31:59.390Z,7.13
2023-03-20T16:39:08.133Z,6.75
2023-03-20T16:46:09.653Z,7.47
2023-03-20T16:53:12.322Z,7.65
2023-03-20T17:00:25.820Z,7.95
2023-03-20T17:07:28.378Z,8.73
2023-03-20T17:14:30.080Z,7.75
2023-03-20T17:21:31.885Z,8.73
2023-03-20T17:28:34.991Z,9.00
2023-03-20T17:35:37.162Z,9.90
2023-03-20T17:42:39.643Z,8.65
2023-03-20T17:49:41.181Z,9.38
2023-03-20T17:56:42.875Z,7.68
2023-03-20T18:03:44.433Z,7.45
2023-03-20T18:10:46.013Z,8.73
2023-03-20T18:17:47.523Z,8.63
2023-03-20T18:24:49.096Z,7.90
2023-03-20T18:31:50.774Z,8.75
2023-03-20T18:38:52.412Z,8.10
2023-03-20T18:45:54.075Z,8.32
2023-03-20T18:52:56.410Z,7.18
2023-03-20T18:59:57.930Z,7.82
2023-03-20T19:06:59.456Z,7.72
2023-03-20T19:14:01.243Z,8.70
2023-03-20T19:21:02.862Z,8.98
2023-03-20T19:28:04.886Z,11.27
2023-03-20T19:42:53.075Z,8.38
2023-03-20T19:49:50.150Z,8.05
2023-03-20T19:56:51.699Z,8.65
2023-03-20T20:03:58.204Z,9.30
2023-03-20T20:10:59.802Z,9.05
2023-03-20T20:18:01.556Z,8.68
2023-03-20T20:25:03.338Z,8.13
2023-03-20T20:32:05.401Z,9.07
2023-03-20T20:39:07.170Z,8.95
2023-03-20T20:46:08.818Z,7.82
2023-03-20T20:53:10.570Z,8.02
2023-03-20T21:00:12.681Z,7.47
2023-03-20T21:07:14.255Z,6.93
2023-03-20T21:14:15.785Z,6.80
2023-03-20T21:21:17.319Z,6.45
2023-03-20T21:28:18.914Z,6.30
2023-03-20T21:35:20.420Z,6.25
2023-03-20T21:42:21.938Z,6.70
2023-03-20T21:50:17.509Z,6.80
2023-03-20T22:05:01.418Z,6.28
2023-03-20T22:12:07.705Z,6.20
2023-03-20T22:27:13.014Z,6.68
2023-03-20T22:48:20.418Z,6.93
2023-03-20T22:55:22.677Z,6.72
2023-03-20T23:02:24.172Z,5.25
2023-03-20T23:09:25.722Z,5.25
2023-03-20T23:16:27.347Z,4.88
2023-03-20T23:23:28.939Z,4.88
2023-03-20T23:30:37.832Z,4.68
2023-03-20T23:37:45.464Z,4.88
2023-03-20T23:44:55.565Z,5.68
2023-03-20T23:51:58.855Z,5.10
2023-03-20T23:59:11.177Z,5.47
